Aktualne dane pomiarowe

Uwaga, wersja testowa! Automatyczne pobieranie danych za pomocą narzędzi lub skryptów to umożliwiających jest zabronione.

Dane meteo z obszaru Polski uzyskane na podstawie depesz SYNOP pobieranych co godzinę z NWS. Najedź myszką na symbol przedstawiony w tabeli, aby uzyskać informacje co do jego znaczenia. Prosimy pamiętać, że to testowa wersja strony, która jeszcze nie jest ukończona. Stworzono również jest krótki FAQ dotyczący korzystania z tej podstrony Anomalie temperatury w chwili obecnej odniesione są do okresu referencyjnego 1951-2016. Okres ten będzie później zmieniony na 1981-2010. Kliknij ikonę aby pobrać plik CSV. Kliknij ikonę aby wygenerować mapę synoptyczną dla danego terminu.

Wybierz Datę:    

        

Przemyśl (12695)

Dane terminowe dla wybranej stacji. Kliknij datę, aby otrzymać dane z tego terminu dla wszystkich stacji.

TemperaturaZachmurzenieWiatrCiśnienieOpadyPogoda
 Data t td wb tx tn tg rh  Nt Nl Cl Cm Ch ws wd g1 g2 wx mslp ppp ch 24h 12h t ww ww w1 w2  
2019-08-08 23:00:00 16.5 13.3 14.3--- 81---2wx---1014.6 981.8 0.6---wx-----
2019-08-08 22:00:00 17.6 13.5 14.9--- 77---2----1014.4 981.8 0.8---wx-----
2019-08-08 21:00:00 17.8 13.6 15.0--- 76---2wx---1014.3 981.6 1.2---wx-----
2019-08-08 20:00:00 19.1 13.4 15.4--- 70---2wx---1013.7 981.2 1.0---------
2019-08-08 19:00:00 20.0 13.0 15.5--- 64---2wx---1013.3 980.9 0.7---wx-----
2019-08-08 18:00:00 20.9 13.2 16.0 24.9 18.1- 61---2wx---1012.7 980.4 0.2- 0.012wx-----
2019-08-08 17:00:00 22.4 12.9 16.5--- 55---2----1012.3 980.2 0.0---wx-----
2019-08-08 16:00:00 23.8 14.1 17.6--- 55---0----1012.1 980.2 0.0---------
2019-08-08 15:00:00 24.2 14.3 17.9--- 54---0----1012.1 980.2 0.2---------
2019-08-08 14:00:00 24.2 14.0 17.8--- 53---4wx---1012.1 980.2 0.2---wx-----
2019-08-08 13:00:00 23.7 15.3 18.2--- 59---4----1012.0 980.0 0.4---wx-----
2019-08-08 12:00:00 23.8 15.9 18.6--- 61---4----1012.0 980.0 1.2- 0.06wx-----
2019-08-08 11:00:00 22.7 16.5 18.5--- 68---4----1012.1 980.0 1.5---wx-----
2019-08-08 10:00:00 21.9 16.8 18.4--- 73---4wx---1011.8 979.6 2.0---wx-----
2019-08-08 09:00:00 20.9 16.6 17.9--- 76---4----1011.1 978.8 2.0---wx-----
2019-08-08 08:00:00 19.3 16.8 17.5--- 85---4wx---1010.9 978.5 2.3---wx-----
2019-08-08 07:00:00 18.6 17.6 17.9--- 94---3----1010.0 977.6 2.4---wx-----
2019-08-08 06:00:00 18.5 17.7 17.9 30.0 18.1 18 95---3----1009.3 976.8 2.9 18.0 7.012wx---- 6.2
2019-08-08 05:00:00 18.5 17.6 17.8--- 95---0----1008.6 976.2 2.3---------
2019-08-08 04:00:00 18.2 17.6 17.8--- 96---0----1007.6 975.1 0.6---------
2019-08-08 03:00:00 19.4 18.1 18.4--- 92---1----1006.2 974.0 -1.0---wx-----
2019-08-08 02:00:00 20.5 17.8 18.6--- 85---3----1006.0 973.9 -1.3---wx-----
2019-08-08 01:00:00 20.1 17.8 18.5--- 87---1wx---1006.8 974.6 -0.8---wx-----
2019-08-08 00:00:00 18.9 17.8 18.1--- 93---1wx---1007.2 974.9 -0.7- 0.06wx-----
2019-08-07 23:00:00 19.2 17.8 18.2--- 92---1wx---1007.5 975.2 -0.6---wx-----
2019-08-07 22:00:00 19.4 17.5 18.0--- 89---1----1007.7 975.4 -1.1---wx-----
2019-08-07 21:00:00 20.0 17.6 18.3--- 86---2----1007.9 975.6 -1.0---wx-----
2019-08-07 20:00:00 19.5 18.2 18.5--- 92---0----1008.1 975.8 -1.3---------
2019-08-07 19:00:00 20.0 18.2 18.7--- 89---0----1008.7 976.5 -1.7---------
2019-08-07 18:00:00 19.4 18.7 18.9 30.0 19.7- 96---2wx---1009.0 976.6 -1.1- 10.012wx-----
2019-08-07 17:00:00 19.8 17.8 18.4--- 88---1----1009.4 977.1 -0.4---wx-----
2019-08-07 16:00:00 19.3 17.7 18.1--- 90---4----1010.6 978.2 0.6---wx-----
2019-08-07 15:00:00 25.5 16.6 19.6--- 58---1----1009.5 977.8 0.4---wx-----
2019-08-07 14:00:00 26.3 16.8 20.1--- 56---0----1009.1 977.5 -0.6---------
2019-08-07 13:00:00 27.4 16.9 20.5--- 53---4wx---1009.0 977.5 -1.1---wx-----
2019-08-07 12:00:00 29.2 17.0 21.2--- 48---4wx---1008.6 977.3 -1.5- 5.06wx-----
2019-08-07 11:00:00 29.2 15.8 20.6--- 44---5wx---1009.3 978.0 -1.1---wx-----
2019-08-07 10:00:00 28.5 16.8 20.9--- 49---4----1010.0 978.6 -0.3---wx-----
2019-08-07 09:00:00 27.5 16.4 20.3--- 51---0----1010.4 978.9 0.0---------
2019-08-07 08:00:00 26.5 16.8 20.1--- 55---3----1010.7 979.0 0.2---wx-----
2019-08-07 07:00:00 24.6 17.0 19.5--- 63---3----1010.7 978.9 0.0---wx-----
2019-08-07 06:00:00 22.7 16.6 18.6 27.1 19.7 19 69---3----1010.9 978.9 0.3 0.0 0.012wx---- 9.9
2019-08-07 05:00:00 20.7 16.3 17.7--- 76---4----1011.1 978.8 0.4---wx-----
2019-08-07 04:00:00 19.7 16.4 17.4--- 81---0----1011.4 979.0 0.2---------
2019-08-07 03:00:00 20.6 15.7 17.3--- 74---4wx---1010.8 978.6 -0.4---wx-----
2019-08-07 02:00:00 20.5 15.7 17.3--- 74---4----1010.7 978.5 -0.8---wx-----
2019-08-07 01:00:00 20.8 15.7 17.4--- 73---4wx---1011.0 978.8 -0.8---wx-----
2019-08-07 00:00:00 20.4 15.5 17.1--- 74---4----1011.2 979.0 -0.8- 0.06wx-----
1.1 ms

 

Print Friendly, PDF & Email